sensor_id;sensor_type;location;lat;lon;timestamp;P1;durP1;ratioP1;P2;durP2;ratioP2
26612;SDS011;14248;57.652;11.908;2023-03-14T00:01:50;19.70;;;3.58;;
26612;SDS011;14248;57.652;11.908;2023-03-14T00:04:16;20.15;;;3.38;;
26612;SDS011;14248;57.652;11.908;2023-03-14T00:06:42;16.17;;;3.45;;
26612;SDS011;14248;57.652;11.908;2023-03-14T00:09:08;21.08;;;3.60;;
26612;SDS011;14248;57.652;11.908;2023-03-14T00:11:34;20.27;;;4.22;;
26612;SDS011;14248;57.652;11.908;2023-03-14T00:14:00;18.65;;;3.38;;
26612;SDS011;14248;57.652;11.908;2023-03-14T00:16:27;26.70;;;4.00;;
26612;SDS011;14248;57.652;11.908;2023-03-14T00:18:53;23.88;;;3.83;;
26612;SDS011;14248;57.652;11.908;2023-03-14T00:21:19;18.63;;;3.65;;
26612;SDS011;14248;57.652;11.908;2023-03-14T00:23:46;15.52;;;3.10;;
26612;SDS011;14248;57.652;11.908;2023-03-14T00:26:13;22.23;;;3.88;;
26612;SDS011;14248;57.652;11.908;2023-03-14T00:28:39;18.25;;;3.58;;
26612;SDS011;14248;57.652;11.908;2023-03-14T00:31:06;19.50;;;3.38;;
26612;SDS011;14248;57.652;11.908;2023-03-14T00:33:33;19.10;;;3.80;;
26612;SDS011;14248;57.652;11.908;2023-03-14T00:36:00;18.63;;;3.10;;
26612;SDS011;14248;57.652;11.908;2023-03-14T00:38:27;20.42;;;3.45;;
26612;SDS011;14248;57.652;11.908;2023-03-14T00:40:53;18.52;;;3.58;;
26612;SDS011;14248;57.652;11.908;2023-03-14T00:43:19;15.48;;;3.47;;
26612;SDS011;14248;57.652;11.908;2023-03-14T00:45:49;16.60;;;3.75;;
26612;SDS011;14248;57.652;11.908;2023-03-14T00:48:15;17.00;;;3.03;;
26612;SDS011;14248;57.652;11.908;2023-03-14T00:50:42;24.23;;;3.55;;
26612;SDS011;14248;57.652;11.908;2023-03-14T00:53:08;17.00;;;3.80;;
26612;SDS011;14248;57.652;11.908;2023-03-14T00:55:37;20.52;;;3.40;;
26612;SDS011;14248;57.652;11.908;2023-03-14T00:58:03;19.42;;;3.45;;
26612;SDS011;14248;57.652;11.908;2023-03-14T01:00:30;26.08;;;4.28;;
26612;SDS011;14248;57.652;11.908;2023-03-14T01:02:56;25.42;;;4.00;;
26612;SDS011;14248;57.652;11.908;2023-03-14T01:05:22;19.33;;;3.47;;
26612;SDS011;14248;57.652;11.908;2023-03-14T01:07:48;24.75;;;3.40;;
26612;SDS011;14248;57.652;11.908;2023-03-14T01:10:15;17.63;;;2.97;;
26612;SDS011;14248;57.652;11.908;2023-03-14T01:12:41;20.05;;;3.00;;
26612;SDS011;14248;57.652;11.908;2023-03-14T01:15:07;19.50;;;2.72;;
26612;SDS011;14248;57.652;11.908;2023-03-14T01:17:33;17.67;;;2.92;;
26612;SDS011;14248;57.652;11.908;2023-03-14T01:20:00;16.05;;;2.47;;
26612;SDS011;14248;57.652;11.908;2023-03-14T01:22:26;14.95;;;2.35;;
26612;SDS011;14248;57.652;11.908;2023-03-14T01:24:52;13.15;;;2.38;;
26612;SDS011;14248;57.652;11.908;2023-03-14T01:27:18;15.75;;;2.20;;
26612;SDS011;14248;57.652;11.908;2023-03-14T01:29:44;17.08;;;2.40;;
26612;SDS011;14248;57.652;11.908;2023-03-14T01:32:12;18.27;;;2.58;;
26612;SDS011;14248;57.652;11.908;2023-03-14T01:34:38;19.10;;;2.47;;
26612;SDS011;14248;57.652;11.908;2023-03-14T01:37:04;13.60;;;2.90;;
26612;SDS011;14248;57.652;11.908;2023-03-14T01:39:32;18.80;;;2.65;;
26612;SDS011;14248;57.652;11.908;2023-03-14T01:41:59;16.77;;;2.80;;
26612;SDS011;14248;57.652;11.908;2023-03-14T01:44:25;21.60;;;2.40;;
26612;SDS011;14248;57.652;11.908;2023-03-14T01:46:51;17.13;;;2.63;;
26612;SDS011;14248;57.652;11.908;2023-03-14T01:49:22;15.23;;;2.53;;
26612;SDS011;14248;57.652;11.908;2023-03-14T01:51:55;16.13;;;2.35;;
26612;SDS011;14248;57.652;11.908;2023-03-14T01:54:27;11.77;;;2.17;;
26612;SDS011;14248;57.652;11.908;2023-03-14T01:56:58;16.98;;;2.28;;
26612;SDS011;14248;57.652;11.908;2023-03-14T01:59:27;12.52;;;1.83;;
26612;SDS011;14248;57.652;11.908;2023-03-14T02:01:53;15.63;;;2.22;;
26612;SDS011;14248;57.652;11.908;2023-03-14T02:04:20;15.48;;;2.25;;
26612;SDS011;14248;57.652;11.908;2023-03-14T02:06:48;16.60;;;2.70;;
26612;SDS011;14248;57.652;11.908;2023-03-14T02:09:15;16.88;;;2.83;;
26612;SDS011;14248;57.652;11.908;2023-03-14T02:11:42;13.68;;;1.80;;
26612;SDS011;14248;57.652;11.908;2023-03-14T02:14:09;17.83;;;2.72;;
26612;SDS011;14248;57.652;11.908;2023-03-14T02:16:40;13.98;;;2.05;;
26612;SDS011;14248;57.652;11.908;2023-03-14T02:19:06;15.02;;;2.60;;
26612;SDS011;14248;57.652;11.908;2023-03-14T02:29:31;15.50;;;2.20;;
26612;SDS011;14248;57.652;11.908;2023-03-14T02:31:58;18.58;;;1.85;;
26612;SDS011;14248;57.652;11.908;2023-03-14T02:34:24;14.93;;;2.00;;
26612;SDS011;14248;57.652;11.908;2023-03-14T02:36:51;14.18;;;1.80;;
26612;SDS011;14248;57.652;11.908;2023-03-14T02:39:20;16.33;;;1.52;;
26612;SDS011;14248;57.652;11.908;2023-03-14T02:41:48;10.77;;;1.88;;
26612;SDS011;14248;57.652;11.908;2023-03-14T02:44:15;10.20;;;1.92;;
26612;SDS011;14248;57.652;11.908;2023-03-14T02:46:41;12.93;;;2.10;;
26612;SDS011;14248;57.652;11.908;2023-03-14T02:49:08;13.45;;;1.90;;
26612;SDS011;14248;57.652;11.908;2023-03-14T02:51:36;13.68;;;1.88;;
26612;SDS011;14248;57.652;11.908;2023-03-14T02:54:02;15.32;;;3.05;;
26612;SDS011;14248;57.652;11.908;2023-03-14T02:56:29;11.60;;;1.60;;
26612;SDS011;14248;57.652;11.908;2023-03-14T02:58:55;17.73;;;2.30;;
26612;SDS011;14248;57.652;11.908;2023-03-14T03:01:22;11.88;;;1.50;;
26612;SDS011;14248;57.652;11.908;2023-03-14T03:03:48;12.38;;;1.90;;
26612;SDS011;14248;57.652;11.908;2023-03-14T03:06:16;11.82;;;1.50;;
26612;SDS011;14248;57.652;11.908;2023-03-14T03:08:42;11.65;;;1.45;;
26612;SDS011;14248;57.652;11.908;2023-03-14T03:11:08;11.48;;;1.40;;
26612;SDS011;14248;57.652;11.908;2023-03-14T03:13:34;16.88;;;1.90;;
26612;SDS011;14248;57.652;11.908;2023-03-14T03:16:00;14.27;;;1.60;;
26612;SDS011;14248;57.652;11.908;2023-03-14T03:18:26;10.45;;;1.40;;
26612;SDS011;14248;57.652;11.908;2023-03-14T03:20:52;10.85;;;1.90;;
26612;SDS011;14248;57.652;11.908;2023-03-14T03:23:18;15.55;;;2.13;;
26612;SDS011;14248;57.652;11.908;2023-03-14T03:25:51;12.07;;;1.50;;
26612;SDS011;14248;57.652;11.908;2023-03-14T03:28:17;14.57;;;1.58;;
26612;SDS011;14248;57.652;11.908;2023-03-14T03:30:43;9.45;;;1.65;;
26612;SDS011;14248;57.652;11.908;2023-03-14T03:33:09;13.75;;;1.60;;
26612;SDS011;14248;57.652;11.908;2023-03-14T03:35:41;11.20;;;2.38;;
26612;SDS011;14248;57.652;11.908;2023-03-14T03:38:07;14.65;;;1.55;;
26612;SDS011;14248;57.652;11.908;2023-03-14T03:40:33;9.23;;;1.25;;
26612;SDS011;14248;57.652;11.908;2023-03-14T03:42:59;8.80;;;1.60;;
26612;SDS011;14248;57.652;11.908;2023-03-14T03:45:25;15.27;;;2.03;;
26612;SDS011;14248;57.652;11.908;2023-03-14T03:47:51;9.88;;;1.83;;
26612;SDS011;14248;57.652;11.908;2023-03-14T03:50:17;10.75;;;1.88;;
26612;SDS011;14248;57.652;11.908;2023-03-14T03:52:43;14.85;;;1.90;;
26612;SDS011;14248;57.652;11.908;2023-03-14T03:55:09;13.20;;;1.55;;
26612;SDS011;14248;57.652;11.908;2023-03-14T03:57:35;14.85;;;1.85;;
26612;SDS011;14248;57.652;11.908;2023-03-14T04:00:02;14.05;;;1.60;;
26612;SDS011;14248;57.652;11.908;2023-03-14T04:02:30;12.63;;;1.50;;
26612;SDS011;14248;57.652;11.908;2023-03-14T04:04:56;9.63;;;1.33;;
26612;SDS011;14248;57.652;11.908;2023-03-14T04:07:22;13.93;;;1.52;;
26612;SDS011;14248;57.652;11.908;2023-03-14T04:09:48;10.02;;;2.15;;
26612;SDS011;14248;57.652;11.908;2023-03-14T04:12:14;12.90;;;1.48;;
26612;SDS011;14248;57.652;11.908;2023-03-14T04:14:40;10.18;;;1.42;;
26612;SDS011;14248;57.652;11.908;2023-03-14T04:17:07;10.38;;;1.80;;
26612;SDS011;14248;57.652;11.908;2023-03-14T04:19:33;8.63;;;1.30;;
26612;SDS011;14248;57.652;11.908;2023-03-14T04:21:59;10.98;;;1.55;;
26612;SDS011;14248;57.652;11.908;2023-03-14T04:24:25;11.57;;;1.48;;
26612;SDS011;14248;57.652;11.908;2023-03-14T04:26:51;15.20;;;1.70;;
26612;SDS011;14248;57.652;11.908;2023-03-14T04:29:17;11.73;;;1.40;;
26612;SDS011;14248;57.652;11.908;2023-03-14T04:31:46;14.23;;;1.98;;
26612;SDS011;14248;57.652;11.908;2023-03-14T04:34:12;8.30;;;1.23;;
26612;SDS011;14248;57.652;11.908;2023-03-14T04:36:38;7.82;;;1.38;;
26612;SDS011;14248;57.652;11.908;2023-03-14T04:39:04;11.15;;;1.35;;
26612;SDS011;14248;57.652;11.908;2023-03-14T04:41:30;15.90;;;1.58;;
26612;SDS011;14248;57.652;11.908;2023-03-14T04:43:57;14.65;;;2.25;;
26612;SDS011;14248;57.652;11.908;2023-03-14T04:46:23;11.07;;;1.58;;
26612;SDS011;14248;57.652;11.908;2023-03-14T04:48:49;17.50;;;2.33;;
26612;SDS011;14248;57.652;11.908;2023-03-14T04:51:15;12.00;;;1.65;;
26612;SDS011;14248;57.652;11.908;2023-03-14T04:53:41;18.15;;;1.52;;
26612;SDS011;14248;57.652;11.908;2023-03-14T04:56:07;13.95;;;1.60;;
26612;SDS011;14248;57.652;11.908;2023-03-14T04:58:33;16.67;;;1.83;;
26612;SDS011;14248;57.652;11.908;2023-03-14T05:01:03;8.07;;;1.55;;
26612;SDS011;14248;57.652;11.908;2023-03-14T05:03:29;15.63;;;1.88;;
26612;SDS011;14248;57.652;11.908;2023-03-14T05:05:55;15.15;;;2.15;;
26612;SDS011;14248;57.652;11.908;2023-03-14T05:08:22;18.20;;;1.92;;
26612;SDS011;14248;57.652;11.908;2023-03-14T05:10:52;23.75;;;2.55;;
26612;SDS011;14248;57.652;11.908;2023-03-14T05:13:18;18.00;;;3.00;;
26612;SDS011;14248;57.652;11.908;2023-03-14T05:15:44;14.68;;;2.45;;
26612;SDS011;14248;57.652;11.908;2023-03-14T05:18:10;17.08;;;2.08;;
26612;SDS011;14248;57.652;11.908;2023-03-14T05:20:36;14.82;;;2.30;;
26612;SDS011;14248;57.652;11.908;2023-03-14T05:23:02;16.52;;;2.17;;
26612;SDS011;14248;57.652;11.908;2023-03-14T05:25:28;24.05;;;2.75;;
26612;SDS011;14248;57.652;11.908;2023-03-14T05:27:54;19.25;;;3.05;;
26612;SDS011;14248;57.652;11.908;2023-03-14T05:30:21;25.27;;;3.03;;
26612;SDS011;14248;57.652;11.908;2023-03-14T05:32:47;18.45;;;2.20;;
26612;SDS011;14248;57.652;11.908;2023-03-14T05:35:13;19.48;;;2.20;;
26612;SDS011;14248;57.652;11.908;2023-03-14T05:37:39;25.20;;;3.30;;
26612;SDS011;14248;57.652;11.908;2023-03-14T05:40:06;22.98;;;2.85;;
26612;SDS011;14248;57.652;11.908;2023-03-14T05:42:33;18.38;;;2.70;;
26612;SDS011;14248;57.652;11.908;2023-03-14T05:44:59;24.55;;;2.97;;
26612;SDS011;14248;57.652;11.908;2023-03-14T05:47:25;21.90;;;2.50;;
26612;SDS011;14248;57.652;11.908;2023-03-14T05:49:52;19.27;;;2.22;;
26612;SDS011;14248;57.652;11.908;2023-03-14T05:52:18;19.38;;;2.53;;
26612;SDS011;14248;57.652;11.908;2023-03-14T05:54:44;19.08;;;2.95;;
26612;SDS011;14248;57.652;11.908;2023-03-14T05:57:10;23.80;;;3.13;;
26612;SDS011;14248;57.652;11.908;2023-03-14T05:59:36;18.00;;;3.05;;
26612;SDS011;14248;57.652;11.908;2023-03-14T06:02:02;17.50;;;2.55;;
26612;SDS011;14248;57.652;11.908;2023-03-14T06:04:28;17.15;;;2.85;;
26612;SDS011;14248;57.652;11.908;2023-03-14T06:06:54;21.63;;;2.58;;
26612;SDS011;14248;57.652;11.908;2023-03-14T06:09:20;19.15;;;2.60;;
26612;SDS011;14248;57.652;11.908;2023-03-14T06:11:48;23.02;;;3.08;;
26612;SDS011;14248;57.652;11.908;2023-03-14T06:14:14;24.20;;;3.45;;
26612;SDS011;14248;57.652;11.908;2023-03-14T06:16:40;23.15;;;3.20;;
26612;SDS011;14248;57.652;11.908;2023-03-14T06:19:07;26.20;;;2.83;;
26612;SDS011;14248;57.652;11.908;2023-03-14T06:21:33;27.20;;;3.33;;
26612;SDS011;14248;57.652;11.908;2023-03-14T06:23:59;24.98;;;4.00;;
26612;SDS011;14248;57.652;11.908;2023-03-14T06:26:26;22.48;;;3.42;;
26612;SDS011;14248;57.652;11.908;2023-03-14T06:28:52;21.98;;;3.50;;
26612;SDS011;14248;57.652;11.908;2023-03-14T06:31:18;25.23;;;3.05;;
26612;SDS011;14248;57.652;11.908;2023-03-14T06:33:45;21.73;;;3.20;;
26612;SDS011;14248;57.652;11.908;2023-03-14T06:36:11;19.05;;;3.30;;
26612;SDS011;14248;57.652;11.908;2023-03-14T06:38:38;21.35;;;3.10;;
26612;SDS011;14248;57.652;11.908;2023-03-14T06:41:04;22.52;;;3.42;;
26612;SDS011;14248;57.652;11.908;2023-03-14T06:43:31;23.17;;;2.78;;
26612;SDS011;14248;57.652;11.908;2023-03-14T06:45:57;26.73;;;3.38;;
26612;SDS011;14248;57.652;11.908;2023-03-14T06:48:23;22.77;;;3.25;;
26612;SDS011;14248;57.652;11.908;2023-03-14T06:50:49;19.15;;;3.03;;
26612;SDS011;14248;57.652;11.908;2023-03-14T06:53:15;25.27;;;3.75;;
26612;SDS011;14248;57.652;11.908;2023-03-14T06:55:41;22.08;;;3.30;;
26612;SDS011;14248;57.652;11.908;2023-03-14T06:58:08;26.42;;;2.88;;
26612;SDS011;14248;57.652;11.908;2023-03-14T07:00:34;24.35;;;3.67;;
26612;SDS011;14248;57.652;11.908;2023-03-14T07:03:00;19.73;;;3.00;;
26612;SDS011;14248;57.652;11.908;2023-03-14T07:05:26;19.90;;;2.50;;
26612;SDS011;14248;57.652;11.908;2023-03-14T07:07:52;20.27;;;3.13;;
26612;SDS011;14248;57.652;11.908;2023-03-14T07:10:19;18.08;;;2.03;;
26612;SDS011;14248;57.652;11.908;2023-03-14T07:12:45;20.80;;;2.85;;
26612;SDS011;14248;57.652;11.908;2023-03-14T07:15:11;20.55;;;2.50;;
26612;SDS011;14248;57.652;11.908;2023-03-14T07:17:37;14.77;;;2.88;;
26612;SDS011;14248;57.652;11.908;2023-03-14T07:20:03;9.65;;;2.00;;
26612;SDS011;14248;57.652;11.908;2023-03-14T07:22:30;15.77;;;2.63;;
26612;SDS011;14248;57.652;11.908;2023-03-14T07:24:56;9.02;;;1.90;;
26612;SDS011;14248;57.652;11.908;2023-03-14T07:27:22;12.40;;;2.17;;
26612;SDS011;14248;57.652;11.908;2023-03-14T07:29:48;11.77;;;1.70;;
26612;SDS011;14248;57.652;11.908;2023-03-14T07:32:14;9.40;;;1.35;;
26612;SDS011;14248;57.652;11.908;2023-03-14T07:34:41;13.90;;;1.63;;
26612;SDS011;14248;57.652;11.908;2023-03-14T07:37:07;14.02;;;2.13;;
26612;SDS011;14248;57.652;11.908;2023-03-14T07:39:33;11.57;;;1.50;;
26612;SDS011;14248;57.652;11.908;2023-03-14T07:41:59;9.35;;;1.75;;
26612;SDS011;14248;57.652;11.908;2023-03-14T07:44:25;14.02;;;1.98;;
26612;SDS011;14248;57.652;11.908;2023-03-14T07:46:52;16.05;;;1.90;;
26612;SDS011;14248;57.652;11.908;2023-03-14T07:49:18;10.93;;;1.90;;
26612;SDS011;14248;57.652;11.908;2023-03-14T07:51:47;14.98;;;1.95;;
26612;SDS011;14248;57.652;11.908;2023-03-14T07:54:13;9.63;;;1.70;;
26612;SDS011;14248;57.652;11.908;2023-03-14T07:56:39;10.57;;;1.77;;
26612;SDS011;14248;57.652;11.908;2023-03-14T07:59:05;14.13;;;2.17;;
26612;SDS011;14248;57.652;11.908;2023-03-14T08:01:32;11.60;;;2.00;;
26612;SDS011;14248;57.652;11.908;2023-03-14T08:03:58;16.10;;;2.72;;
26612;SDS011;14248;57.652;11.908;2023-03-14T08:06:24;16.83;;;2.33;;
26612;SDS011;14248;57.652;11.908;2023-03-14T08:08:51;11.52;;;2.10;;
26612;SDS011;14248;57.652;11.908;2023-03-14T08:11:17;15.20;;;2.25;;
26612;SDS011;14248;57.652;11.908;2023-03-14T08:13:43;16.67;;;1.60;;
26612;SDS011;14248;57.652;11.908;2023-03-14T08:16:15;11.73;;;1.60;;
26612;SDS011;14248;57.652;11.908;2023-03-14T08:18:42;20.20;;;2.30;;
26612;SDS011;14248;57.652;11.908;2023-03-14T08:21:08;17.23;;;2.45;;
26612;SDS011;14248;57.652;11.908;2023-03-14T08:23:34;13.73;;;1.90;;
26612;SDS011;14248;57.652;11.908;2023-03-14T08:26:00;9.65;;;1.63;;
26612;SDS011;14248;57.652;11.908;2023-03-14T08:28:27;10.38;;;1.70;;
26612;SDS011;14248;57.652;11.908;2023-03-14T08:30:58;10.15;;;2.00;;
26612;SDS011;14248;57.652;11.908;2023-03-14T08:33:25;6.45;;;1.85;;
26612;SDS011;14248;57.652;11.908;2023-03-14T08:35:55;12.20;;;2.13;;
26612;SDS011;14248;57.652;11.908;2023-03-14T08:38:21;12.30;;;1.98;;
26612;SDS011;14248;57.652;11.908;2023-03-14T08:40:47;13.32;;;2.03;;
26612;SDS011;14248;57.652;11.908;2023-03-14T08:43:16;13.10;;;1.70;;
26612;SDS011;14248;57.652;11.908;2023-03-14T08:45:42;9.63;;;1.60;;
26612;SDS011;14248;57.652;11.908;2023-03-14T08:48:08;16.52;;;2.53;;
26612;SDS011;14248;57.652;11.908;2023-03-14T08:50:34;14.02;;;2.05;;
26612;SDS011;14248;57.652;11.908;2023-03-14T08:53:00;10.85;;;1.48;;
26612;SDS011;14248;57.652;11.908;2023-03-14T08:55:27;14.25;;;1.77;;
26612;SDS011;14248;57.652;11.908;2023-03-14T08:57:53;10.48;;;1.60;;
26612;SDS011;14248;57.652;11.908;2023-03-14T09:00:19;7.03;;;1.58;;
26612;SDS011;14248;57.652;11.908;2023-03-14T09:05:53;12.68;;;2.00;;
26612;SDS011;14248;57.652;11.908;2023-03-14T09:08:19;11.40;;;1.60;;
26612;SDS011;14248;57.652;11.908;2023-03-14T09:10:45;11.13;;;1.45;;
26612;SDS011;14248;57.652;11.908;2023-03-14T09:13:11;5.35;;;1.05;;
26612;SDS011;14248;57.652;11.908;2023-03-14T09:15:37;8.48;;;1.50;;
26612;SDS011;14248;57.652;11.908;2023-03-14T09:18:03;9.75;;;1.48;;
26612;SDS011;14248;57.652;11.908;2023-03-14T09:20:30;10.15;;;1.50;;
26612;SDS011;14248;57.652;11.908;2023-03-14T09:22:56;9.85;;;1.70;;
26612;SDS011;14248;57.652;11.908;2023-03-14T09:25:22;11.70;;;1.23;;
26612;SDS011;14248;57.652;11.908;2023-03-14T09:27:48;8.02;;;1.30;;
26612;SDS011;14248;57.652;11.908;2023-03-14T09:30:14;7.15;;;1.17;;
26612;SDS011;14248;57.652;11.908;2023-03-14T09:32:40;8.90;;;1.30;;
26612;SDS011;14248;57.652;11.908;2023-03-14T09:35:06;9.13;;;1.25;;
26612;SDS011;14248;57.652;11.908;2023-03-14T09:37:32;9.25;;;1.20;;
26612;SDS011;14248;57.652;11.908;2023-03-14T09:39:58;5.50;;;1.02;;
26612;SDS011;14248;57.652;11.908;2023-03-14T09:42:25;8.52;;;1.40;;
26612;SDS011;14248;57.652;11.908;2023-03-14T09:45:03;9.38;;;1.40;;
26612;SDS011;14248;57.652;11.908;2023-03-14T09:47:30;7.43;;;1.48;;
26612;SDS011;14248;57.652;11.908;2023-03-14T09:49:59;11.00;;;2.10;;
26612;SDS011;14248;57.652;11.908;2023-03-14T09:52:35;5.20;;;0.82;;
26612;SDS011;14248;57.652;11.908;2023-03-14T09:55:03;10.60;;;1.27;;
26612;SDS011;14248;57.652;11.908;2023-03-14T09:57:30;9.02;;;1.55;;
26612;SDS011;14248;57.652;11.908;2023-03-14T10:00:00;10.45;;;1.17;;
26612;SDS011;14248;57.652;11.908;2023-03-14T10:02:33;6.38;;;1.15;;
26612;SDS011;14248;57.652;11.908;2023-03-14T10:05:00;9.73;;;1.27;;
26612;SDS011;14248;57.652;11.908;2023-03-14T10:07:28;4.60;;;0.93;;
26612;SDS011;14248;57.652;11.908;2023-03-14T10:09:55;6.75;;;1.05;;
26612;SDS011;14248;57.652;11.908;2023-03-14T10:12:30;9.15;;;1.40;;
26612;SDS011;14248;57.652;11.908;2023-03-14T10:14:56;6.63;;;1.52;;
26612;SDS011;14248;57.652;11.908;2023-03-14T10:17:22;9.60;;;1.23;;
26612;SDS011;14248;57.652;11.908;2023-03-14T10:22:19;8.40;;;1.05;;
26612;SDS011;14248;57.652;11.908;2023-03-14T10:24:46;8.50;;;1.33;;
26612;SDS011;14248;57.652;11.908;2023-03-14T10:27:19;5.03;;;0.95;;
26612;SDS011;14248;57.652;11.908;2023-03-14T10:29:57;5.55;;;1.00;;
26612;SDS011;14248;57.652;11.908;2023-03-14T10:32:27;7.60;;;1.45;;
26612;SDS011;14248;57.652;11.908;2023-03-14T10:37:49;8.88;;;1.08;;
26612;SDS011;14248;57.652;11.908;2023-03-14T10:40:16;2.92;;;0.68;;
26612;SDS011;14248;57.652;11.908;2023-03-14T10:42:44;5.47;;;0.90;;
26612;SDS011;14248;57.652;11.908;2023-03-14T10:47:50;7.22;;;1.05;;
26612;SDS011;14248;57.652;11.908;2023-03-14T10:50:24;5.53;;;0.90;;
26612;SDS011;14248;57.652;11.908;2023-03-14T10:52:51;4.53;;;1.02;;
26612;SDS011;14248;57.652;11.908;2023-03-14T10:55:19;7.97;;;1.25;;
26612;SDS011;14248;57.652;11.908;2023-03-14T10:57:45;4.63;;;0.90;;
26612;SDS011;14248;57.652;11.908;2023-03-14T11:00:21;6.95;;;1.23;;
26612;SDS011;14248;57.652;11.908;2023-03-14T11:02:58;6.40;;;1.20;;
26612;SDS011;14248;57.652;11.908;2023-03-14T11:07:54;8.40;;;1.00;;
26612;SDS011;14248;57.652;11.908;2023-03-14T11:10:26;9.32;;;1.45;;
26612;SDS011;14248;57.652;11.908;2023-03-14T11:21:04;4.50;;;0.98;;
26612;SDS011;14248;57.652;11.908;2023-03-14T11:26:17;7.70;;;1.10;;
26612;SDS011;14248;57.652;11.908;2023-03-14T11:28:47;9.75;;;0.98;;
26612;SDS011;14248;57.652;11.908;2023-03-14T11:31:24;8.07;;;0.82;;
26612;SDS011;14248;57.652;11.908;2023-03-14T11:34:01;6.07;;;0.80;;
26612;SDS011;14248;57.652;11.908;2023-03-14T11:36:39;7.13;;;1.25;;
26612;SDS011;14248;57.652;11.908;2023-03-14T11:39:17;5.97;;;1.00;;
26612;SDS011;14248;57.652;11.908;2023-03-14T11:41:47;5.15;;;1.02;;
26612;SDS011;14248;57.652;11.908;2023-03-14T11:46:55;6.40;;;0.95;;
26612;SDS011;14248;57.652;11.908;2023-03-14T11:49:30;8.25;;;1.27;;
26612;SDS011;14248;57.652;11.908;2023-03-14T11:52:03;2.85;;;0.88;;
26612;SDS011;14248;57.652;11.908;2023-03-14T11:54:42;6.43;;;0.90;;
26612;SDS011;14248;57.652;11.908;2023-03-14T11:57:21;3.97;;;0.73;;
26612;SDS011;14248;57.652;11.908;2023-03-14T12:02:42;5.20;;;0.85;;
26612;SDS011;14248;57.652;11.908;2023-03-14T12:11:01;2.45;;;0.63;;
26612;SDS011;14248;57.652;11.908;2023-03-14T12:13:29;1.52;;;0.40;;
26612;SDS011;14248;57.652;11.908;2023-03-14T12:15:57;4.70;;;0.60;;
26612;SDS011;14248;57.652;11.908;2023-03-14T12:18:31;3.30;;;0.40;;
26612;SDS011;14248;57.652;11.908;2023-03-14T12:20:59;4.85;;;0.75;;
26612;SDS011;14248;57.652;11.908;2023-03-14T12:23:27;4.55;;;0.80;;
26612;SDS011;14248;57.652;11.908;2023-03-14T12:28:38;5.00;;;0.60;;
26612;SDS011;14248;57.652;11.908;2023-03-14T12:36:20;2.65;;;0.50;;
26612;SDS011;14248;57.652;11.908;2023-03-14T12:38:59;3.50;;;0.70;;
26612;SDS011;14248;57.652;11.908;2023-03-14T12:41:46;3.22;;;0.70;;
26612;SDS011;14248;57.652;11.908;2023-03-14T12:44:48;6.35;;;1.20;;
26612;SDS011;14248;57.652;11.908;2023-03-14T12:49:45;4.18;;;1.30;;
26612;SDS011;14248;57.652;11.908;2023-03-14T12:52:22;4.03;;;0.43;;
26612;SDS011;14248;57.652;11.908;2023-03-14T12:55:18;2.63;;;1.00;;
26612;SDS011;14248;57.652;11.908;2023-03-14T13:00:17;4.68;;;0.70;;
26612;SDS011;14248;57.652;11.908;2023-03-14T13:02:44;2.25;;;0.65;;
26612;SDS011;14248;57.652;11.908;2023-03-14T13:05:19;1.15;;;0.40;;
26612;SDS011;14248;57.652;11.908;2023-03-14T13:10:28;6.57;;;1.20;;
26612;SDS011;14248;57.652;11.908;2023-03-14T13:13:07;2.42;;;0.50;;
26612;SDS011;14248;57.652;11.908;2023-03-14T13:15:38;3.42;;;0.90;;
26612;SDS011;14248;57.652;11.908;2023-03-14T13:18:12;2.25;;;0.40;;
26612;SDS011;14248;57.652;11.908;2023-03-14T13:20:50;2.55;;;0.55;;
26612;SDS011;14248;57.652;11.908;2023-03-14T13:23:24;4.65;;;0.52;;
26612;SDS011;14248;57.652;11.908;2023-03-14T13:25:54;4.18;;;0.63;;
26612;SDS011;14248;57.652;11.908;2023-03-14T13:28:21;6.15;;;0.60;;
26612;SDS011;14248;57.652;11.908;2023-03-14T13:30:49;3.03;;;0.43;;
26612;SDS011;14248;57.652;11.908;2023-03-14T13:33:19;3.75;;;0.80;;
26612;SDS011;14248;57.652;11.908;2023-03-14T13:35:47;3.10;;;0.70;;
26612;SDS011;14248;57.652;11.908;2023-03-14T13:38:21;1.77;;;0.70;;
26612;SDS011;14248;57.652;11.908;2023-03-14T13:40:51;2.20;;;0.47;;
26612;SDS011;14248;57.652;11.908;2023-03-14T13:43:18;1.38;;;0.40;;
26612;SDS011;14248;57.652;11.908;2023-03-14T13:48:27;1.58;;;0.30;;
26612;SDS011;14248;57.652;11.908;2023-03-14T13:51:01;2.20;;;0.60;;
26612;SDS011;14248;57.652;11.908;2023-03-14T13:53:29;5.80;;;1.00;;
26612;SDS011;14248;57.652;11.908;2023-03-14T13:55:55;4.20;;;0.57;;
26612;SDS011;14248;57.652;11.908;2023-03-14T13:58:22;3.28;;;1.20;;
26612;SDS011;14248;57.652;11.908;2023-03-14T14:00:58;2.92;;;0.50;;
26612;SDS011;14248;57.652;11.908;2023-03-14T14:03:25;1.10;;;0.30;;
26612;SDS011;14248;57.652;11.908;2023-03-14T14:05:53;1.52;;;0.30;;
26612;SDS011;14248;57.652;11.908;2023-03-14T14:08:21;0.93;;;0.20;;
26612;SDS011;14248;57.652;11.908;2023-03-14T14:10:47;0.73;;;0.40;;
26612;SDS011;14248;57.652;11.908;2023-03-14T14:13:17;0.85;;;0.40;;
26612;SDS011;14248;57.652;11.908;2023-03-14T14:15:48;0.90;;;0.38;;
26612;SDS011;14248;57.652;11.908;2023-03-14T14:18:17;1.85;;;0.32;;
26612;SDS011;14248;57.652;11.908;2023-03-14T14:20:47;0.43;;;0.20;;
26612;SDS011;14248;57.652;11.908;2023-03-14T14:25:39;1.80;;;0.50;;
26612;SDS011;14248;57.652;11.908;2023-03-14T14:33:38;0.40;;;0.32;;
26612;SDS011;14248;57.652;11.908;2023-03-14T14:38:31;3.72;;;0.43;;
26612;SDS011;14248;57.652;11.908;2023-03-14T14:41:01;1.17;;;0.30;;
26612;SDS011;14248;57.652;11.908;2023-03-14T14:43:28;2.22;;;0.50;;
26612;SDS011;14248;57.652;11.908;2023-03-14T14:45:56;2.60;;;0.30;;
26612;SDS011;14248;57.652;11.908;2023-03-14T14:48:23;2.42;;;0.30;;
26612;SDS011;14248;57.652;11.908;2023-03-14T14:50:54;2.47;;;0.40;;
26612;SDS011;14248;57.652;11.908;2023-03-14T14:56:13;1.77;;;0.20;;
26612;SDS011;14248;57.652;11.908;2023-03-14T14:58:47;0.93;;;0.50;;
26612;SDS011;14248;57.652;11.908;2023-03-14T15:01:17;2.90;;;0.40;;
26612;SDS011;14248;57.652;11.908;2023-03-14T15:03:45;1.83;;;0.40;;
26612;SDS011;14248;57.652;11.908;2023-03-14T15:06:12;1.83;;;0.50;;
26612;SDS011;14248;57.652;11.908;2023-03-14T15:08:38;2.47;;;0.60;;
26612;SDS011;14248;57.652;11.908;2023-03-14T15:11:04;2.00;;;0.50;;
26612;SDS011;14248;57.652;11.908;2023-03-14T15:13:31;1.50;;;0.50;;
26612;SDS011;14248;57.652;11.908;2023-03-14T15:15:57;2.63;;;0.50;;
26612;SDS011;14248;57.652;11.908;2023-03-14T15:18:24;1.40;;;0.47;;
26612;SDS011;14248;57.652;11.908;2023-03-14T15:20:50;2.13;;;0.60;;
26612;SDS011;14248;57.652;11.908;2023-03-14T15:23:17;2.67;;;0.40;;
26612;SDS011;14248;57.652;11.908;2023-03-14T15:25:44;2.15;;;0.50;;
26612;SDS011;14248;57.652;11.908;2023-03-14T15:30:48;2.63;;;0.70;;
26612;SDS011;14248;57.652;11.908;2023-03-14T15:33:14;3.33;;;0.52;;
26612;SDS011;14248;57.652;11.908;2023-03-14T15:35:40;1.90;;;0.82;;
26612;SDS011;14248;57.652;11.908;2023-03-14T15:38:11;0.68;;;0.30;;
26612;SDS011;14248;57.652;11.908;2023-03-14T15:40:37;3.13;;;0.70;;
26612;SDS011;14248;57.652;11.908;2023-03-14T15:43:04;0.95;;;0.30;;
26612;SDS011;14248;57.652;11.908;2023-03-14T15:45:30;1.60;;;0.40;;
26612;SDS011;14248;57.652;11.908;2023-03-14T15:47:56;1.40;;;0.70;;